sensor_id;sensor_type;location;lat;lon;timestamp;P1;durP1;ratioP1;P2;durP2;ratioP2
59474;SDS011;45288;51.136;16.928;2023-03-26T00:00:27;45.50;;;14.20;;
59474;SDS011;45288;51.136;16.928;2023-03-26T00:02:53;36.08;;;10.82;;
59474;SDS011;45288;51.136;16.928;2023-03-26T00:05:19;40.47;;;10.50;;
59474;SDS011;45288;51.136;16.928;2023-03-26T00:07:45;35.33;;;9.70;;
59474;SDS011;45288;51.136;16.928;2023-03-26T00:10:11;38.17;;;10.70;;
59474;SDS011;45288;51.136;16.928;2023-03-26T00:12:37;36.33;;;9.80;;
59474;SDS011;45288;51.136;16.928;2023-03-26T00:15:02;32.60;;;10.80;;
59474;SDS011;45288;51.136;16.928;2023-03-26T00:17:28;47.73;;;14.13;;
59474;SDS011;45288;51.136;16.928;2023-03-26T00:19:54;35.47;;;10.73;;
59474;SDS011;45288;51.136;16.928;2023-03-26T00:22:21;38.85;;;11.77;;
59474;SDS011;45288;51.136;16.928;2023-03-26T00:24:48;42.60;;;13.30;;
59474;SDS011;45288;51.136;16.928;2023-03-26T00:27:15;44.07;;;11.90;;
59474;SDS011;45288;51.136;16.928;2023-03-26T00:29:41;44.60;;;13.85;;
59474;SDS011;45288;51.136;16.928;2023-03-26T00:32:07;43.17;;;10.67;;
59474;SDS011;45288;51.136;16.928;2023-03-26T00:34:33;47.00;;;13.15;;
59474;SDS011;45288;51.136;16.928;2023-03-26T00:36:59;39.65;;;10.48;;
59474;SDS011;45288;51.136;16.928;2023-03-26T00:39:27;37.53;;;9.23;;
59474;SDS011;45288;51.136;16.928;2023-03-26T00:41:53;28.98;;;8.52;;
59474;SDS011;45288;51.136;16.928;2023-03-26T00:44:19;38.78;;;10.75;;
59474;SDS011;45288;51.136;16.928;2023-03-26T00:46:47;30.20;;;9.38;;
59474;SDS011;45288;51.136;16.928;2023-03-26T00:49:14;36.58;;;10.70;;
59474;SDS011;45288;51.136;16.928;2023-03-26T00:51:42;34.75;;;10.05;;
59474;SDS011;45288;51.136;16.928;2023-03-26T00:54:07;36.03;;;11.23;;
59474;SDS011;45288;51.136;16.928;2023-03-26T00:56:33;39.95;;;13.15;;
59474;SDS011;45288;51.136;16.928;2023-03-26T00:58:59;34.50;;;12.48;;
59474;SDS011;45288;51.136;16.928;2023-03-26T01:01:25;38.83;;;12.77;;
59474;SDS011;45288;51.136;16.928;2023-03-26T01:03:52;36.67;;;15.20;;
59474;SDS011;45288;51.136;16.928;2023-03-26T01:06:24;49.08;;;17.20;;
59474;SDS011;45288;51.136;16.928;2023-03-26T01:08:52;42.25;;;15.65;;
59474;SDS011;45288;51.136;16.928;2023-03-26T01:11:23;48.45;;;18.90;;
59474;SDS011;45288;51.136;16.928;2023-03-26T01:13:51;53.93;;;34.97;;
59474;SDS011;45288;51.136;16.928;2023-03-26T01:16:23;73.45;;;42.58;;
59474;SDS011;45288;51.136;16.928;2023-03-26T01:18:50;54.03;;;40.70;;
59474;SDS011;45288;51.136;16.928;2023-03-26T01:21:18;58.35;;;34.30;;
59474;SDS011;45288;51.136;16.928;2023-03-26T01:23:59;62.95;;;31.95;;
59474;SDS011;45288;51.136;16.928;2023-03-26T01:26:37;61.50;;;25.75;;
59474;SDS011;45288;51.136;16.928;2023-03-26T01:29:07;47.47;;;17.90;;
59474;SDS011;45288;51.136;16.928;2023-03-26T01:31:54;49.70;;;22.73;;
59474;SDS011;45288;51.136;16.928;2023-03-26T01:37:19;40.85;;;22.90;;
59474;SDS011;45288;51.136;16.928;2023-03-26T01:39:53;42.47;;;21.27;;
59474;SDS011;45288;51.136;16.928;2023-03-26T01:42:44;44.47;;;19.50;;
59474;SDS011;45288;51.136;16.928;2023-03-26T01:45:12;36.87;;;17.17;;
59474;SDS011;45288;51.136;16.928;2023-03-26T01:47:39;41.95;;;14.93;;
59474;SDS011;45288;51.136;16.928;2023-03-26T01:50:06;36.20;;;17.20;;
59474;SDS011;45288;51.136;16.928;2023-03-26T01:52:32;45.28;;;17.85;;
59474;SDS011;45288;51.136;16.928;2023-03-26T01:54:58;40.70;;;19.13;;
59474;SDS011;45288;51.136;16.928;2023-03-26T01:57:28;48.67;;;18.02;;
59474;SDS011;45288;51.136;16.928;2023-03-26T02:02:46;37.42;;;15.57;;
59474;SDS011;45288;51.136;16.928;2023-03-26T02:10:16;40.50;;;11.60;;
59474;SDS011;45288;51.136;16.928;2023-03-26T02:12:47;33.83;;;7.45;;
59474;SDS011;45288;51.136;16.928;2023-03-26T02:15:13;37.53;;;7.87;;
59474;SDS011;45288;51.136;16.928;2023-03-26T02:17:39;35.10;;;7.38;;
59474;SDS011;45288;51.136;16.928;2023-03-26T02:20:06;38.80;;;8.20;;
59474;SDS011;45288;51.136;16.928;2023-03-26T02:22:34;40.70;;;8.27;;
59474;SDS011;45288;51.136;16.928;2023-03-26T02:25:07;43.35;;;12.73;;
59474;SDS011;45288;51.136;16.928;2023-03-26T02:27:34;49.65;;;14.23;;
59474;SDS011;45288;51.136;16.928;2023-03-26T02:30:00;47.15;;;13.77;;
59474;SDS011;45288;51.136;16.928;2023-03-26T02:32:26;62.63;;;32.47;;
59474;SDS011;45288;51.136;16.928;2023-03-26T02:34:52;52.13;;;25.53;;
59474;SDS011;45288;51.136;16.928;2023-03-26T02:37:17;52.83;;;25.52;;
59474;SDS011;45288;51.136;16.928;2023-03-26T02:39:46;49.40;;;26.02;;
59474;SDS011;45288;51.136;16.928;2023-03-26T02:42:22;58.50;;;31.97;;
59474;SDS011;45288;51.136;16.928;2023-03-26T02:44:49;62.35;;;33.15;;
59474;SDS011;45288;51.136;16.928;2023-03-26T02:47:17;69.18;;;32.72;;
59474;SDS011;45288;51.136;16.928;2023-03-26T02:49:52;62.08;;;28.00;;
59474;SDS011;45288;51.136;16.928;2023-03-26T02:52:37;62.00;;;24.15;;
59474;SDS011;45288;51.136;16.928;2023-03-26T02:55:03;54.17;;;19.52;;
59474;SDS011;45288;51.136;16.928;2023-03-26T02:57:30;48.85;;;18.67;;
59474;SDS011;45288;51.136;16.928;2023-03-26T03:00:05;43.58;;;9.07;;
59474;SDS011;45288;51.136;16.928;2023-03-26T03:02:44;32.60;;;6.88;;
59474;SDS011;45288;51.136;16.928;2023-03-26T03:05:30;39.28;;;7.85;;
59474;SDS011;45288;51.136;16.928;2023-03-26T03:08:15;49.15;;;8.80;;
59474;SDS011;45288;51.136;16.928;2023-03-26T03:13:38;34.53;;;6.97;;
59474;SDS011;45288;51.136;16.928;2023-03-26T03:16:04;32.80;;;6.67;;
59474;SDS011;45288;51.136;16.928;2023-03-26T03:18:30;37.85;;;7.60;;
59474;SDS011;45288;51.136;16.928;2023-03-26T03:20:55;42.78;;;11.93;;
59474;SDS011;45288;51.136;16.928;2023-03-26T03:23:21;42.50;;;14.80;;
59474;SDS011;45288;51.136;16.928;2023-03-26T03:25:52;28.50;;;6.55;;
59474;SDS011;45288;51.136;16.928;2023-03-26T03:28:17;39.23;;;10.70;;
59474;SDS011;45288;51.136;16.928;2023-03-26T03:30:44;35.13;;;10.03;;
59474;SDS011;45288;51.136;16.928;2023-03-26T03:33:20;41.95;;;13.52;;
59474;SDS011;45288;51.136;16.928;2023-03-26T03:35:47;34.47;;;10.10;;
59474;SDS011;45288;51.136;16.928;2023-03-26T03:38:14;45.47;;;14.43;;
59474;SDS011;45288;51.136;16.928;2023-03-26T03:40:46;43.40;;;14.68;;
59474;SDS011;45288;51.136;16.928;2023-03-26T03:43:12;36.78;;;10.57;;
59474;SDS011;45288;51.136;16.928;2023-03-26T03:45:49;31.42;;;10.13;;
59474;SDS011;45288;51.136;16.928;2023-03-26T03:48:29;39.85;;;11.10;;
59474;SDS011;45288;51.136;16.928;2023-03-26T03:50:55;34.40;;;8.48;;
59474;SDS011;45288;51.136;16.928;2023-03-26T03:53:27;36.90;;;9.48;;
59474;SDS011;45288;51.136;16.928;2023-03-26T03:55:57;35.97;;;8.20;;
59474;SDS011;45288;51.136;16.928;2023-03-26T03:58:31;37.35;;;8.57;;
59474;SDS011;45288;51.136;16.928;2023-03-26T04:01:07;32.60;;;9.40;;
59474;SDS011;45288;51.136;16.928;2023-03-26T04:03:56;45.55;;;24.40;;
59474;SDS011;45288;51.136;16.928;2023-03-26T04:06:28;51.20;;;15.95;;
59474;SDS011;45288;51.136;16.928;2023-03-26T04:08:55;32.13;;;12.53;;
59474;SDS011;45288;51.136;16.928;2023-03-26T04:11:21;50.55;;;19.42;;
59474;SDS011;45288;51.136;16.928;2023-03-26T04:14:07;40.70;;;13.68;;
59474;SDS011;45288;51.136;16.928;2023-03-26T04:16:53;40.20;;;13.68;;
59474;SDS011;45288;51.136;16.928;2023-03-26T04:19:20;58.63;;;17.85;;
59474;SDS011;45288;51.136;16.928;2023-03-26T04:21:46;40.00;;;15.20;;
59474;SDS011;45288;51.136;16.928;2023-03-26T04:24:11;54.13;;;26.45;;
59474;SDS011;45288;51.136;16.928;2023-03-26T04:27:00;66.03;;;58.13;;
59474;SDS011;45288;51.136;16.928;2023-03-26T04:29:33;238.50;;;220.53;;
59474;SDS011;45288;51.136;16.928;2023-03-26T04:32:03;151.68;;;139.43;;
59474;SDS011;45288;51.136;16.928;2023-03-26T04:34:32;143.77;;;130.60;;
59474;SDS011;45288;51.136;16.928;2023-03-26T04:37:38;132.15;;;120.28;;
59474;SDS011;45288;51.136;16.928;2023-03-26T04:40:19;52.72;;;25.05;;
59474;SDS011;45288;51.136;16.928;2023-03-26T04:42:55;44.33;;;25.38;;
59474;SDS011;45288;51.136;16.928;2023-03-26T04:45:43;351.52;;;328.00;;
59474;SDS011;45288;51.136;16.928;2023-03-26T04:48:13;140.40;;;129.15;;
59474;SDS011;45288;51.136;16.928;2023-03-26T04:50:40;352.70;;;329.48;;
59474;SDS011;45288;51.136;16.928;2023-03-26T04:53:08;321.02;;;299.40;;
59474;SDS011;45288;51.136;16.928;2023-03-26T04:55:56;72.47;;;60.47;;
59474;SDS011;45288;51.136;16.928;2023-03-26T04:58:44;38.17;;;12.50;;
59474;SDS011;45288;51.136;16.928;2023-03-26T05:01:12;53.33;;;20.23;;
59474;SDS011;45288;51.136;16.928;2023-03-26T05:03:41;40.83;;;13.75;;
59474;SDS011;45288;51.136;16.928;2023-03-26T05:06:10;38.53;;;12.68;;
59474;SDS011;45288;51.136;16.928;2023-03-26T05:08:36;40.05;;;12.43;;
59474;SDS011;45288;51.136;16.928;2023-03-26T05:11:02;32.35;;;11.23;;
59474;SDS011;45288;51.136;16.928;2023-03-26T05:13:34;40.63;;;11.45;;
59474;SDS011;45288;51.136;16.928;2023-03-26T05:16:05;35.40;;;10.83;;
59474;SDS011;45288;51.136;16.928;2023-03-26T05:18:40;41.92;;;13.07;;
59474;SDS011;45288;51.136;16.928;2023-03-26T05:21:06;35.83;;;10.68;;
59474;SDS011;45288;51.136;16.928;2023-03-26T05:23:32;43.67;;;12.82;;
59474;SDS011;45288;51.136;16.928;2023-03-26T05:26:10;39.53;;;12.60;;
59474;SDS011;45288;51.136;16.928;2023-03-26T05:28:36;41.17;;;12.35;;
59474;SDS011;45288;51.136;16.928;2023-03-26T05:31:11;29.88;;;8.45;;
59474;SDS011;45288;51.136;16.928;2023-03-26T05:33:43;41.60;;;10.43;;
59474;SDS011;45288;51.136;16.928;2023-03-26T05:36:11;35.42;;;9.45;;
59474;SDS011;45288;51.136;16.928;2023-03-26T05:38:44;32.63;;;10.07;;
59474;SDS011;45288;51.136;16.928;2023-03-26T05:41:32;41.90;;;12.95;;
59474;SDS011;45288;51.136;16.928;2023-03-26T05:43:58;30.00;;;11.18;;
59474;SDS011;45288;51.136;16.928;2023-03-26T05:46:26;41.88;;;14.02;;
59474;SDS011;45288;51.136;16.928;2023-03-26T05:48:52;42.60;;;14.48;;
59474;SDS011;45288;51.136;16.928;2023-03-26T05:51:19;45.22;;;14.50;;
59474;SDS011;45288;51.136;16.928;2023-03-26T05:53:57;34.53;;;13.82;;
59474;SDS011;45288;51.136;16.928;2023-03-26T05:56:43;40.20;;;16.83;;
59474;SDS011;45288;51.136;16.928;2023-03-26T05:59:28;62.28;;;22.60;;
59474;SDS011;45288;51.136;16.928;2023-03-26T06:02:12;45.10;;;17.58;;
59474;SDS011;45288;51.136;16.928;2023-03-26T06:04:40;45.78;;;16.05;;
59474;SDS011;45288;51.136;16.928;2023-03-26T06:07:22;39.00;;;14.10;;
59474;SDS011;45288;51.136;16.928;2023-03-26T06:10:07;42.38;;;15.93;;
59474;SDS011;45288;51.136;16.928;2023-03-26T06:12:34;461.13;;;430.33;;
59474;SDS011;45288;51.136;16.928;2023-03-26T06:15:02;116.03;;;105.73;;
59474;SDS011;45288;51.136;16.928;2023-03-26T06:17:40;423.40;;;395.17;;
59474;SDS011;45288;51.136;16.928;2023-03-26T06:20:24;163.32;;;150.48;;
59474;SDS011;45288;51.136;16.928;2023-03-26T06:22:52;162.77;;;151.23;;
59474;SDS011;45288;51.136;16.928;2023-03-26T06:25:20;99.13;;;89.05;;
59474;SDS011;45288;51.136;16.928;2023-03-26T06:28:06;75.63;;;67.30;;
59474;SDS011;45288;51.136;16.928;2023-03-26T06:31:10;229.53;;;212.80;;
59474;SDS011;45288;51.136;16.928;2023-03-26T06:33:41;60.10;;;49.38;;
59474;SDS011;45288;51.136;16.928;2023-03-26T06:36:08;123.53;;;113.28;;
59474;SDS011;45288;51.136;16.928;2023-03-26T06:38:34;165.32;;;152.55;;
59474;SDS011;45288;51.136;16.928;2023-03-26T06:41:06;75.50;;;67.30;;
59474;SDS011;45288;51.136;16.928;2023-03-26T06:44:05;50.85;;;20.45;;
59474;SDS011;45288;51.136;16.928;2023-03-26T06:46:49;68.17;;;53.87;;
59474;SDS011;45288;51.136;16.928;2023-03-26T06:49:40;52.22;;;35.47;;
59474;SDS011;45288;51.136;16.928;2023-03-26T06:52:32;80.65;;;72.47;;
59474;SDS011;45288;51.136;16.928;2023-03-26T06:55:18;155.75;;;142.30;;
59474;SDS011;45288;51.136;16.928;2023-03-26T06:58:02;81.72;;;74.00;;
59474;SDS011;45288;51.136;16.928;2023-03-26T07:00:57;53.50;;;20.08;;
59474;SDS011;45288;51.136;16.928;2023-03-26T07:03:49;43.15;;;17.17;;
59474;SDS011;45288;51.136;16.928;2023-03-26T07:06:33;50.35;;;18.35;;
59474;SDS011;45288;51.136;16.928;2023-03-26T07:09:18;46.43;;;21.10;;
59474;SDS011;45288;51.136;16.928;2023-03-26T07:12:02;46.97;;;17.63;;
59474;SDS011;45288;51.136;16.928;2023-03-26T07:14:42;48.95;;;20.58;;
59474;SDS011;45288;51.136;16.928;2023-03-26T07:17:27;43.50;;;16.70;;
59474;SDS011;45288;51.136;16.928;2023-03-26T07:19:59;39.83;;;20.23;;
59474;SDS011;45288;51.136;16.928;2023-03-26T07:22:26;49.17;;;19.98;;
59474;SDS011;45288;51.136;16.928;2023-03-26T07:25:27;51.10;;;19.73;;
59474;SDS011;45288;51.136;16.928;2023-03-26T07:31:30;50.03;;;16.83;;
59474;SDS011;45288;51.136;16.928;2023-03-26T07:37:18;44.67;;;18.63;;
59474;SDS011;45288;51.136;16.928;2023-03-26T07:45:44;134.23;;;123.32;;
59474;SDS011;45288;51.136;16.928;2023-03-26T07:48:26;106.00;;;95.88;;
59474;SDS011;45288;51.136;16.928;2023-03-26T07:50:59;138.20;;;125.68;;
59474;SDS011;45288;51.136;16.928;2023-03-26T07:53:47;136.38;;;124.25;;
59474;SDS011;45288;51.136;16.928;2023-03-26T07:56:59;194.33;;;179.90;;
59474;SDS011;45288;51.136;16.928;2023-03-26T08:05:46;58.95;;;18.48;;
59474;SDS011;45288;51.136;16.928;2023-03-26T08:08:37;54.63;;;22.95;;
59474;SDS011;45288;51.136;16.928;2023-03-26T08:11:39;48.77;;;15.70;;
59474;SDS011;45288;51.136;16.928;2023-03-26T08:21:43;41.47;;;15.32;;
59474;SDS011;45288;51.136;16.928;2023-03-26T08:24:15;53.17;;;20.90;;
59474;SDS011;45288;51.136;16.928;2023-03-26T08:26:45;49.45;;;19.13;;
59474;SDS011;45288;51.136;16.928;2023-03-26T08:31:40;47.23;;;16.53;;
59474;SDS011;45288;51.136;16.928;2023-03-26T08:34:09;42.07;;;17.97;;
59474;SDS011;45288;51.136;16.928;2023-03-26T08:36:35;46.20;;;13.93;;
59474;SDS011;45288;51.136;16.928;2023-03-26T08:39:01;45.07;;;21.77;;
59474;SDS011;45288;51.136;16.928;2023-03-26T09:02:59;47.72;;;14.88;;
59474;SDS011;45288;51.136;16.928;2023-03-26T09:08:19;44.03;;;19.55;;
59474;SDS011;45288;51.136;16.928;2023-03-26T09:34:01;37.60;;;13.40;;
59474;SDS011;45288;51.136;16.928;2023-03-26T09:36:40;62.63;;;38.22;;
59474;SDS011;45288;51.136;16.928;2023-03-26T09:44:36;59.13;;;30.58;;
59474;SDS011;45288;51.136;16.928;2023-03-26T09:50:03;38.67;;;20.07;;
59474;SDS011;45288;51.136;16.928;2023-03-26T09:52:51;54.03;;;27.85;;
59474;SDS011;45288;51.136;16.928;2023-03-26T09:55:24;51.72;;;28.65;;
59474;SDS011;45288;51.136;16.928;2023-03-26T10:00:43;47.22;;;16.98;;
59474;SDS011;45288;51.136;16.928;2023-03-26T10:05:51;40.28;;;15.52;;
59474;SDS011;45288;51.136;16.928;2023-03-26T10:08:28;40.58;;;16.10;;
59474;SDS011;45288;51.136;16.928;2023-03-26T10:11:00;31.60;;;13.57;;
59474;SDS011;45288;51.136;16.928;2023-03-26T10:29:12;38.05;;;12.88;;
59474;SDS011;45288;51.136;16.928;2023-03-26T10:31:59;40.28;;;15.48;;
59474;SDS011;45288;51.136;16.928;2023-03-26T10:53:42;52.47;;;15.93;;
59474;SDS011;45288;51.136;16.928;2023-03-26T10:56:22;42.72;;;13.93;;
59474;SDS011;45288;51.136;16.928;2023-03-26T10:58:49;59.03;;;16.95;;
59474;SDS011;45288;51.136;16.928;2023-03-26T11:01:34;47.22;;;15.52;;
59474;SDS011;45288;51.136;16.928;2023-03-26T11:20:06;49.92;;;16.08;;
59474;SDS011;45288;51.136;16.928;2023-03-26T11:27:35;35.78;;;8.00;;
59474;SDS011;45288;51.136;16.928;2023-03-26T11:32:38;45.53;;;21.55;;
59474;SDS011;45288;51.136;16.928;2023-03-26T11:35:18;59.05;;;46.38;;
59474;SDS011;45288;51.136;16.928;2023-03-26T11:37:52;39.97;;;20.42;;
59474;SDS011;45288;51.136;16.928;2023-03-26T11:40:32;58.27;;;26.57;;
59474;SDS011;45288;51.136;16.928;2023-03-26T11:43:00;48.00;;;21.52;;
59474;SDS011;45288;51.136;16.928;2023-03-26T11:45:27;58.60;;;30.35;;
59474;SDS011;45288;51.136;16.928;2023-03-26T11:50:48;38.55;;;10.52;;
59474;SDS011;45288;51.136;16.928;2023-03-26T11:53:21;44.70;;;23.58;;
59474;SDS011;45288;51.136;16.928;2023-03-26T11:55:53;62.53;;;37.70;;
59474;SDS011;45288;51.136;16.928;2023-03-26T11:58:32;61.60;;;28.02;;
59474;SDS011;45288;51.136;16.928;2023-03-26T12:01:02;53.60;;;20.23;;
59474;SDS011;45288;51.136;16.928;2023-03-26T12:03:28;53.60;;;19.73;;
59474;SDS011;45288;51.136;16.928;2023-03-26T12:05:56;52.25;;;16.58;;
59474;SDS011;45288;51.136;16.928;2023-03-26T12:08:31;44.30;;;10.60;;
59474;SDS011;45288;51.136;16.928;2023-03-26T12:10:59;55.92;;;25.55;;
59474;SDS011;45288;51.136;16.928;2023-03-26T12:16:14;52.10;;;20.58;;
59474;SDS011;45288;51.136;16.928;2023-03-26T12:18:40;53.50;;;21.25;;
59474;SDS011;45288;51.136;16.928;2023-03-26T12:23:35;42.30;;;17.40;;
59474;SDS011;45288;51.136;16.928;2023-03-26T12:26:10;51.08;;;17.02;;
59474;SDS011;45288;51.136;16.928;2023-03-26T12:28:37;46.13;;;12.75;;
59474;SDS011;45288;51.136;16.928;2023-03-26T12:31:09;135.68;;;124.03;;
59474;SDS011;45288;51.136;16.928;2023-03-26T12:33:35;104.50;;;95.40;;
59474;SDS011;45288;51.136;16.928;2023-03-26T12:36:22;724.88;;;674.67;;
59474;SDS011;45288;51.136;16.928;2023-03-26T12:38:51;866.83;;;809.15;;
59474;SDS011;45288;51.136;16.928;2023-03-26T12:41:20;879.17;;;819.33;;
59474;SDS011;45288;51.136;16.928;2023-03-26T12:43:57;398.63;;;369.35;;
59474;SDS011;45288;51.136;16.928;2023-03-26T12:46:38;364.83;;;338.17;;
59474;SDS011;45288;51.136;16.928;2023-03-26T12:49:04;343.27;;;319.13;;
59474;SDS011;45288;51.136;16.928;2023-03-26T12:51:51;334.27;;;311.10;;
59474;SDS011;45288;51.136;16.928;2023-03-26T12:54:33;372.60;;;346.40;;
59474;SDS011;45288;51.136;16.928;2023-03-26T12:57:06;412.58;;;383.67;;
59474;SDS011;45288;51.136;16.928;2023-03-26T13:15:06;410.45;;;381.50;;
59474;SDS011;45288;51.136;16.928;2023-03-26T13:17:37;511.85;;;475.98;;
59474;SDS011;45288;51.136;16.928;2023-03-26T13:20:13;815.58;;;759.78;;
59474;SDS011;45288;51.136;16.928;2023-03-26T13:25:22;609.38;;;565.00;;
59474;SDS011;45288;51.136;16.928;2023-03-26T13:41:14;240.98;;;223.27;;
59474;SDS011;45288;51.136;16.928;2023-03-26T13:51:21;965.28;;;898.75;;
59474;SDS011;45288;51.136;16.928;2023-03-26T13:53:59;591.83;;;549.55;;
59474;SDS011;45288;51.136;16.928;2023-03-26T13:56:28;450.23;;;418.58;;
59474;SDS011;45288;51.136;16.928;2023-03-26T13:58:58;301.27;;;279.47;;
59474;SDS011;45288;51.136;16.928;2023-03-26T14:01:27;56.63;;;31.00;;
59474;SDS011;45288;51.136;16.928;2023-03-26T14:07:17;55.78;;;22.80;;
59474;SDS011;45288;51.136;16.928;2023-03-26T14:09:39;59.70;;;26.67;;
59474;SDS011;45288;51.136;16.928;2023-03-26T14:14:44;55.38;;;28.95;;
59474;SDS011;45288;51.136;16.928;2023-03-26T14:25:06;176.73;;;163.07;;
59474;SDS011;45288;51.136;16.928;2023-03-26T14:27:43;152.05;;;138.30;;
59474;SDS011;45288;51.136;16.928;2023-03-26T14:38:21;741.45;;;687.42;;
59474;SDS011;45288;51.136;16.928;2023-03-26T14:53:45;133.50;;;120.47;;
59474;SDS011;45288;51.136;16.928;2023-03-26T15:01:18;164.97;;;150.80;;
59474;SDS011;45288;51.136;16.928;2023-03-26T15:50:38;761.88;;;708.13;;
59474;SDS011;45288;51.136;16.928;2023-03-26T15:55:40;334.88;;;309.67;;
59474;SDS011;45288;51.136;16.928;2023-03-26T15:58:14;429.77;;;397.35;;
59474;SDS011;45288;51.136;16.928;2023-03-26T16:00:48;502.45;;;466.20;;
59474;SDS011;45288;51.136;16.928;2023-03-26T16:03:23;449.45;;;416.95;;
59474;SDS011;45288;51.136;16.928;2023-03-26T16:10:54;293.33;;;272.58;;
59474;SDS011;45288;51.136;16.928;2023-03-26T16:13:39;280.88;;;261.70;;
59474;SDS011;45288;51.136;16.928;2023-03-26T16:16:24;273.85;;;256.05;;
59474;SDS011;45288;51.136;16.928;2023-03-26T16:21:53;259.70;;;240.90;;
59474;SDS011;45288;51.136;16.928;2023-03-26T16:24:24;210.33;;;193.40;;
59474;SDS011;45288;51.136;16.928;2023-03-26T16:29:23;522.30;;;485.97;;
